Brandonville, West Virginia
Current Conditions -  °F | °C
As of 6:53 AM on Friday 26 Dec 2014 (Local Time) from KMGW Reporting Station
Clear Clear  
Wind Chill: 29°   Ceiling: Unl
Heat Index: 29°   Visibility: 10mi
Dew Point: 25°   Wind: 0mph
Humidity: 85%   Direction: NA
Pressure: 30.28"   Gusts: NA
Location:  39.6431°N, 79.6244°W
Report Text: KMGW 261153Z AUTO 00000KT 10SM CLR M02/M04 A3028 RMK AO2 SLP265 70001 T10171039 10028 21017 53008 TSNO
Loading
Personal Weather Stations






























Interactive Weather Map New forecast layout! Learn more

10-Day Weather Forecast

Advertisements
Track Severe Weather on mobile